createdAt,value
2018-05-17T00:00:07.949Z,0.00
2018-05-17T00:01:07.916Z,0.00
2018-05-17T00:02:07.896Z,0.00
2018-05-17T00:03:07.881Z,0.00
2018-05-17T00:04:07.863Z,0.00
2018-05-17T00:05:07.841Z,0.00
2018-05-17T00:06:07.837Z,0.00
2018-05-17T00:07:07.814Z,0.00
2018-05-17T00:08:07.792Z,0.00
2018-05-17T00:09:07.775Z,0.00
2018-05-17T00:10:07.756Z,0.00
2018-05-17T00:11:07.740Z,0.00
2018-05-17T00:12:07.721Z,0.00
2018-05-17T00:13:07.703Z,0.00
2018-05-17T00:14:07.679Z,0.00
2018-05-17T00:15:07.668Z,0.00
2018-05-17T00:16:07.683Z,0.00
2018-05-17T00:17:07.630Z,0.00
2018-05-17T00:18:07.612Z,0.00
2018-05-17T00:19:07.595Z,0.00
2018-05-17T00:20:07.574Z,0.00
2018-05-17T00:21:07.556Z,0.00
2018-05-17T00:22:07.539Z,0.00
2018-05-17T00:23:07.518Z,0.00
2018-05-17T00:24:07.502Z,0.00
2018-05-17T00:25:07.483Z,0.00
2018-05-17T00:26:07.463Z,0.00
2018-05-17T00:27:07.449Z,0.00
2018-05-17T00:28:07.428Z,0.00
2018-05-17T00:29:07.416Z,0.00
2018-05-17T00:30:07.391Z,0.00
2018-05-17T00:31:07.377Z,0.00
2018-05-17T00:32:07.359Z,0.00
2018-05-17T00:33:07.341Z,0.00
2018-05-17T00:34:07.317Z,0.00
2018-05-17T00:35:07.301Z,0.00
2018-05-17T00:36:07.288Z,0.00
2018-05-17T00:37:07.268Z,0.00
2018-05-17T00:38:07.248Z,0.00
2018-05-17T00:39:07.228Z,0.00
2018-05-17T00:40:07.214Z,0.00
2018-05-17T00:41:07.194Z,0.00
2018-05-17T00:42:07.177Z,0.00
2018-05-17T00:43:07.160Z,0.00
2018-05-17T00:44:07.141Z,0.00
2018-05-17T00:45:07.125Z,0.00
2018-05-17T00:46:07.111Z,0.00
2018-05-17T00:47:07.085Z,0.00
2018-05-17T00:48:07.070Z,0.00
2018-05-17T00:49:07.049Z,0.00
2018-05-17T00:50:07.036Z,0.00
2018-05-17T00:51:07.016Z,0.00
2018-05-17T00:52:06.999Z,0.00
2018-05-17T00:53:06.988Z,0.00
2018-05-17T00:54:06.961Z,0.00
2018-05-17T00:55:06.942Z,0.00
2018-05-17T00:56:06.925Z,0.00
2018-05-17T00:57:06.909Z,0.00
2018-05-17T00:58:06.888Z,0.00
2018-05-17T00:59:06.873Z,0.00
2018-05-17T01:00:06.852Z,0.00
2018-05-17T01:01:06.840Z,0.00
2018-05-17T01:02:06.815Z,0.00
2018-05-17T01:03:06.803Z,0.00
2018-05-17T01:04:06.781Z,0.00
2018-05-17T01:05:06.763Z,0.00
2018-05-17T01:06:06.748Z,0.00
2018-05-17T01:07:06.730Z,0.00
2018-05-17T01:08:06.709Z,0.00
2018-05-17T01:09:06.691Z,0.00
2018-05-17T01:10:06.671Z,0.00
2018-05-17T01:11:06.659Z,0.00
2018-05-17T01:12:06.640Z,0.00
2018-05-17T01:13:06.620Z,0.00
2018-05-17T01:14:06.599Z,0.00
2018-05-17T01:15:06.585Z,0.00
2018-05-17T01:16:06.566Z,0.00
2018-05-17T01:17:06.556Z,0.00
2018-05-17T01:18:06.531Z,0.00
2018-05-17T01:19:06.508Z,0.00
2018-05-17T01:20:06.490Z,0.00
2018-05-17T01:21:06.479Z,0.00
2018-05-17T01:22:06.456Z,0.00
2018-05-17T01:23:06.438Z,0.00
2018-05-17T01:24:06.422Z,0.00
2018-05-17T01:25:06.406Z,0.00
2018-05-17T01:26:06.387Z,0.00
2018-05-17T01:27:06.365Z,0.00
2018-05-17T01:28:06.350Z,0.00
2018-05-17T01:29:06.328Z,0.00
2018-05-17T01:30:06.311Z,0.00
2018-05-17T01:31:06.294Z,0.00
2018-05-17T01:32:06.294Z,0.00
2018-05-17T01:33:06.261Z,0.00
2018-05-17T01:34:06.239Z,0.00
2018-05-17T01:35:06.246Z,0.00
2018-05-17T01:36:06.204Z,0.00
2018-05-17T01:37:06.185Z,0.00
2018-05-17T01:38:06.172Z,0.00
2018-05-17T01:39:06.150Z,0.00
2018-05-17T01:40:06.132Z,0.00
2018-05-17T01:41:06.116Z,0.00
2018-05-17T01:42:06.130Z,0.00
2018-05-17T01:43:06.076Z,0.00
2018-05-17T01:44:06.060Z,0.00
2018-05-17T01:45:06.046Z,0.00
2018-05-17T01:46:06.023Z,0.00
2018-05-17T01:47:06.005Z,0.00
2018-05-17T01:48:05.989Z,0.00
2018-05-17T01:49:05.979Z,0.00
2018-05-17T01:50:05.949Z,0.00
2018-05-17T01:51:05.934Z,0.00
2018-05-17T01:52:05.918Z,0.00
2018-05-17T01:53:05.899Z,0.00
2018-05-17T01:54:05.878Z,0.00
2018-05-17T01:55:05.859Z,0.00
2018-05-17T01:56:05.855Z,0.00
2018-05-17T01:57:05.826Z,0.00
2018-05-17T01:58:05.807Z,0.00
2018-05-17T01:59:05.795Z,0.00
2018-05-17T02:00:05.770Z,0.00
2018-05-17T02:01:05.752Z,0.00
2018-05-17T02:02:05.734Z,0.00
2018-05-17T02:03:05.730Z,0.00
2018-05-17T02:04:05.700Z,0.00
2018-05-17T02:05:05.679Z,0.00
2018-05-17T02:06:05.666Z,0.00
2018-05-17T02:07:05.645Z,0.00
2018-05-17T02:08:05.626Z,0.00
2018-05-17T02:09:05.604Z,0.00
2018-05-17T02:10:05.588Z,0.00
2018-05-17T02:11:05.570Z,0.00
2018-05-17T02:12:05.555Z,0.00
2018-05-17T02:13:05.535Z,0.00
2018-05-17T02:14:05.516Z,0.00
2018-05-17T02:15:05.501Z,0.00
2018-05-17T02:16:05.481Z,0.00
2018-05-17T02:17:05.467Z,0.00
2018-05-17T02:18:05.449Z,0.00
2018-05-17T02:19:05.486Z,0.00
2018-05-17T02:20:05.408Z,0.00
2018-05-17T02:21:05.387Z,0.00
2018-05-17T02:22:05.374Z,0.00
2018-05-17T02:23:05.354Z,0.00
2018-05-17T02:24:05.334Z,0.00
2018-05-17T02:25:05.320Z,0.00
2018-05-17T02:26:05.299Z,0.00
2018-05-17T02:27:05.285Z,0.00
2018-05-17T02:28:05.264Z,0.00
2018-05-17T02:29:05.253Z,0.00
2018-05-17T02:30:05.224Z,0.00
2018-05-17T02:31:05.209Z,0.00
2018-05-17T02:32:05.193Z,0.00
2018-05-17T02:33:05.178Z,0.00
2018-05-17T02:34:05.154Z,0.00
2018-05-17T02:35:05.141Z,0.00
2018-05-17T02:36:05.119Z,0.00
2018-05-17T02:37:05.101Z,0.00
2018-05-17T02:38:05.082Z,0.00
2018-05-17T02:39:05.066Z,0.00
2018-05-17T02:40:05.048Z,0.00
2018-05-17T02:41:05.028Z,0.00
2018-05-17T02:42:05.012Z,0.00
2018-05-17T02:43:05.016Z,0.00
2018-05-17T02:44:04.977Z,0.00
2018-05-17T02:45:04.960Z,0.00
2018-05-17T02:46:04.950Z,0.00
2018-05-17T02:47:04.918Z,0.00
2018-05-17T02:48:04.913Z,0.00
2018-05-17T02:49:04.898Z,0.00
2018-05-17T02:50:04.957Z,0.00
2018-05-17T02:51:04.850Z,0.00
2018-05-17T02:52:04.920Z,0.00
2018-05-17T02:53:04.817Z,0.00
2018-05-17T02:54:04.791Z,0.00
2018-05-17T02:55:04.783Z,0.00
2018-05-17T02:56:04.759Z,0.00
2018-05-17T02:57:04.747Z,0.00
2018-05-17T02:58:04.720Z,0.00
2018-05-17T02:59:04.718Z,0.00
2018-05-17T03:00:04.685Z,0.00
2018-05-17T03:01:04.668Z,0.00
2018-05-17T03:02:04.649Z,0.00
2018-05-17T03:03:04.631Z,0.00
2018-05-17T03:04:04.623Z,0.00
2018-05-17T03:05:04.595Z,0.00
2018-05-17T03:06:04.576Z,0.00
2018-05-17T03:07:04.559Z,0.00
2018-05-17T03:08:04.548Z,0.00
2018-05-17T03:09:04.522Z,0.00
2018-05-17T03:10:04.513Z,0.00
2018-05-17T03:11:04.491Z,4.00
2018-05-17T03:12:04.467Z,0.00
2018-05-17T03:13:04.457Z,0.00
2018-05-17T03:14:04.429Z,0.00
2018-05-17T03:15:04.412Z,0.00
2018-05-17T03:16:04.396Z,4.00
2018-05-17T03:17:04.387Z,4.00
2018-05-17T03:18:04.363Z,0.00
2018-05-17T03:19:04.339Z,0.00
2018-05-17T03:20:04.322Z,0.00
2018-05-17T03:21:04.299Z,0.00
2018-05-17T03:22:04.286Z,4.00
2018-05-17T03:23:04.271Z,4.00
2018-05-17T03:24:04.246Z,0.00
2018-05-17T03:25:04.229Z,0.00
2018-05-17T03:26:04.209Z,0.00
2018-05-17T03:27:04.193Z,0.00
2018-05-17T03:28:04.177Z,4.00
2018-05-17T03:29:04.160Z,4.00
2018-05-17T03:30:04.135Z,8.00
2018-05-17T03:31:04.124Z,8.00
2018-05-17T03:32:04.100Z,4.00
2018-05-17T03:33:04.082Z,8.00
2018-05-17T03:34:04.065Z,8.00
2018-05-17T03:35:04.049Z,8.00
2018-05-17T03:36:04.028Z,8.00
2018-05-17T03:37:04.010Z,8.00
2018-05-17T03:38:03.992Z,12.00
2018-05-17T03:39:03.974Z,12.00
2018-05-17T03:40:03.955Z,8.00
2018-05-17T03:41:03.940Z,12.00
2018-05-17T03:42:03.922Z,12.00
2018-05-17T03:43:03.899Z,12.00
2018-05-17T03:44:03.883Z,12.00
2018-05-17T03:45:03.869Z,12.00
2018-05-17T03:46:03.849Z,16.00
2018-05-17T03:47:03.825Z,12.00
2018-05-17T03:48:03.805Z,16.00
2018-05-17T03:49:03.792Z,16.00
2018-05-17T03:50:03.769Z,16.00
2018-05-17T03:51:03.751Z,20.00
2018-05-17T03:52:03.734Z,16.00
2018-05-17T03:53:03.722Z,20.00
2018-05-17T03:54:03.694Z,20.00
2018-05-17T03:55:03.678Z,20.00
2018-05-17T03:56:03.666Z,24.00
2018-05-17T03:57:03.641Z,24.00
2018-05-17T03:58:03.624Z,24.00
2018-05-17T03:59:03.608Z,20.00
2018-05-17T04:00:03.589Z,20.00
2018-05-17T04:01:03.568Z,20.00
2018-05-17T04:02:03.550Z,20.00
2018-05-17T04:03:03.534Z,24.00
2018-05-17T04:04:03.515Z,24.00
2018-05-17T04:05:03.583Z,28.00
2018-05-17T04:06:03.476Z,28.00
2018-05-17T04:07:03.469Z,32.00
2018-05-17T04:08:03.445Z,32.00
2018-05-17T04:09:03.423Z,32.00
2018-05-17T04:10:03.406Z,36.00
2018-05-17T04:11:03.385Z,36.00
2018-05-17T04:12:03.369Z,36.00
2018-05-17T04:13:03.348Z,40.00
2018-05-17T04:14:03.329Z,40.00
2018-05-17T04:15:03.317Z,40.00
2018-05-17T04:16:03.299Z,44.00
2018-05-17T04:17:03.285Z,48.00
2018-05-17T04:18:03.269Z,48.00
2018-05-17T04:19:03.239Z,44.00
2018-05-17T04:20:03.220Z,44.00
2018-05-17T04:21:03.215Z,44.00
2018-05-17T04:22:03.188Z,44.00
2018-05-17T04:23:03.169Z,44.00
2018-05-17T04:24:03.154Z,44.00
2018-05-17T04:25:03.143Z,44.00
2018-05-17T04:26:03.111Z,44.00
2018-05-17T04:27:03.098Z,52.00
2018-05-17T04:28:03.097Z,52.00
2018-05-17T04:29:03.057Z,56.00
2018-05-17T04:30:03.044Z,56.00
2018-05-17T04:31:03.025Z,56.00
2018-05-17T04:32:03.008Z,60.00
2018-05-17T04:33:02.988Z,64.00
2018-05-17T04:34:02.968Z,68.00
2018-05-17T04:35:02.948Z,68.00
2018-05-17T04:36:02.930Z,68.00
2018-05-17T04:37:02.914Z,68.00
2018-05-17T04:38:02.898Z,68.00
2018-05-17T04:39:02.875Z,68.00
2018-05-17T04:40:02.859Z,68.00
2018-05-17T04:41:02.840Z,68.00
2018-05-17T04:42:02.819Z,68.00
2018-05-17T04:43:02.804Z,72.00
2018-05-17T04:44:02.787Z,80.00
2018-05-17T04:45:02.767Z,88.00
2018-05-17T04:46:02.748Z,88.00
2018-05-17T04:47:02.828Z,88.00
2018-05-17T04:48:02.721Z,88.00
2018-05-17T04:49:02.693Z,92.00
2018-05-17T04:50:02.676Z,88.00
2018-05-17T04:51:02.663Z,92.00
2018-05-17T04:52:02.641Z,108.00
2018-05-17T04:53:02.628Z,124.00
2018-05-17T04:54:02.598Z,136.00
2018-05-17T04:55:02.584Z,148.00
2018-05-17T04:56:02.565Z,160.00
2018-05-17T04:57:02.545Z,168.00
2018-05-17T04:58:02.527Z,164.00
2018-05-17T04:59:02.515Z,156.00
2018-05-17T05:00:02.499Z,152.00
2018-05-17T05:01:02.482Z,156.00
2018-05-17T05:02:02.460Z,160.00
2018-05-17T05:03:02.561Z,168.00
2018-05-17T05:04:02.420Z,172.00
2018-05-17T05:05:02.401Z,172.00
2018-05-17T05:06:02.386Z,176.00
2018-05-17T05:07:02.365Z,180.00
2018-05-17T05:08:02.350Z,188.00
2018-05-17T05:09:02.333Z,188.00
2018-05-17T05:10:02.307Z,192.00
2018-05-17T05:11:02.295Z,188.00
2018-05-17T05:12:02.271Z,188.00
2018-05-17T05:13:02.264Z,192.00
2018-05-17T05:14:02.236Z,200.00
2018-05-17T05:15:02.222Z,200.00
2018-05-17T05:16:02.197Z,200.00
2018-05-17T05:17:02.181Z,200.00
2018-05-17T05:18:02.160Z,200.00
2018-05-17T05:19:02.149Z,208.00
2018-05-17T05:20:02.125Z,216.00
2018-05-17T05:21:02.117Z,232.00
2018-05-17T05:22:02.091Z,232.00
2018-05-17T05:23:02.071Z,240.00
2018-05-17T05:24:02.055Z,244.00
2018-05-17T05:25:02.041Z,248.00
2018-05-17T05:26:02.015Z,252.00
2018-05-17T05:27:01.999Z,248.00
2018-05-17T05:28:01.985Z,244.00
2018-05-17T05:29:01.967Z,248.00
2018-05-17T05:30:01.953Z,252.00
2018-05-17T05:31:01.928Z,256.00
2018-05-17T05:32:01.913Z,264.00
2018-05-17T05:33:01.891Z,260.00
2018-05-17T05:34:01.869Z,252.00
2018-05-17T05:35:01.859Z,248.00
2018-05-17T05:36:01.834Z,240.00
2018-05-17T05:37:01.824Z,244.00
2018-05-17T05:38:01.795Z,252.00
2018-05-17T05:39:01.779Z,260.00
2018-05-17T05:40:01.763Z,272.00
2018-05-17T05:41:01.747Z,272.00
2018-05-17T05:42:01.724Z,280.00
2018-05-17T05:43:01.706Z,292.00
2018-05-17T05:44:01.689Z,288.00
2018-05-17T05:45:01.671Z,280.00
2018-05-17T05:46:01.649Z,284.00
2018-05-17T05:47:01.640Z,292.00
2018-05-17T05:48:01.614Z,308.00
2018-05-17T05:49:01.597Z,316.00
2018-05-17T05:50:01.576Z,312.00
2018-05-17T05:51:01.561Z,312.00
2018-05-17T05:52:01.540Z,316.00
2018-05-17T05:53:01.526Z,312.00
2018-05-17T05:54:01.509Z,316.00
2018-05-17T05:55:01.495Z,320.00
2018-05-17T05:56:01.468Z,328.00
2018-05-17T05:57:01.448Z,328.00
2018-05-17T05:58:01.429Z,328.00
2018-05-17T05:59:01.410Z,328.00
2018-05-17T06:00:01.393Z,332.00
2018-05-17T06:01:01.376Z,348.00
2018-05-17T06:02:01.358Z,348.00
2018-05-17T06:03:01.345Z,356.00
2018-05-17T06:04:01.322Z,356.00
2018-05-17T06:05:01.307Z,360.00
2018-05-17T06:06:01.290Z,368.00
2018-05-17T06:07:01.282Z,372.00
2018-05-17T06:08:01.247Z,372.00
2018-05-17T06:09:01.227Z,376.00
2018-05-17T06:10:01.209Z,372.00
2018-05-17T06:11:01.192Z,380.00
2018-05-17T06:12:01.171Z,388.00
2018-05-17T06:13:01.155Z,404.00
2018-05-17T06:14:01.139Z,420.00
2018-05-17T06:15:01.118Z,424.00
2018-05-17T06:16:01.104Z,416.00
2018-05-17T06:17:01.078Z,412.00
2018-05-17T06:18:01.059Z,420.00
2018-05-17T06:19:01.045Z,440.00
2018-05-17T06:20:01.026Z,448.00
2018-05-17T06:21:01.012Z,456.00
2018-05-17T06:22:00.987Z,468.00
2018-05-17T06:23:00.972Z,480.00
2018-05-17T06:24:00.949Z,476.00
2018-05-17T06:25:00.934Z,456.00
2018-05-17T06:26:00.917Z,444.00
2018-05-17T06:27:00.895Z,432.00
2018-05-17T06:28:00.881Z,436.00
2018-05-17T06:29:00.859Z,440.00
2018-05-17T06:30:00.839Z,444.00
2018-05-17T06:31:00.820Z,440.00
2018-05-17T06:32:00.801Z,432.00
2018-05-17T06:33:00.785Z,444.00
2018-05-17T06:34:00.764Z,460.00
2018-05-17T06:35:00.752Z,472.00
2018-05-17T06:36:00.732Z,484.00
2018-05-17T06:37:00.712Z,492.00
2018-05-17T06:38:00.692Z,508.00
2018-05-17T06:39:00.674Z,488.00
2018-05-17T06:40:00.665Z,484.00
2018-05-17T06:41:00.638Z,480.00
2018-05-17T06:42:00.622Z,488.00
2018-05-17T06:43:00.604Z,480.00
2018-05-17T06:44:00.767Z,488.00
2018-05-17T06:45:00.569Z,508.00
2018-05-17T06:46:00.548Z,528.00
2018-05-17T06:47:00.527Z,536.00
2018-05-17T06:48:00.513Z,528.00
2018-05-17T06:49:00.492Z,528.00
2018-05-17T06:50:00.472Z,532.00
2018-05-17T06:51:00.453Z,544.00
2018-05-17T06:52:00.549Z,556.00
2018-05-17T06:53:00.439Z,568.00
2018-05-17T06:54:00.405Z,584.00
2018-05-17T06:55:00.379Z,612.00
2018-05-17T06:56:00.371Z,628.00
2018-05-17T06:57:00.344Z,636.00
2018-05-17T06:58:00.328Z,632.00
2018-05-17T06:59:00.319Z,628.00
2018-05-17T07:00:00.291Z,600.00
2018-05-17T07:01:00.286Z,600.00
2018-05-17T07:02:00.254Z,624.00
2018-05-17T07:04:00.225Z,648.00
2018-05-17T07:05:00.197Z,672.00
2018-05-17T07:06:00.178Z,660.00
2018-05-17T07:07:00.164Z,636.00
2018-05-17T07:08:00.153Z,632.00
2018-05-17T07:09:00.127Z,652.00
2018-05-17T07:10:00.108Z,708.00
2018-05-17T07:11:00.089Z,744.00
2018-05-17T07:12:00.067Z,772.00
2018-05-17T07:13:00.050Z,788.00
2018-05-17T07:14:00.035Z,748.00
2018-05-17T07:15:00.021Z,672.00
2018-05-17T07:16:00.000Z,624.00
2018-05-17T07:16:59.980Z,632.00
2018-05-17T07:18:00.042Z,1016.00
2018-05-17T07:18:59.949Z,904.00
2018-05-17T07:19:59.925Z,512.00
2018-05-17T07:20:59.911Z,468.00
2018-05-17T07:21:59.886Z,468.00
2018-05-17T07:22:59.868Z,456.00
2018-05-17T07:23:59.853Z,432.00
2018-05-17T07:25:59.814Z,1092.00
2018-05-17T07:26:59.798Z,1208.00
2018-05-17T07:27:59.781Z,1248.00
2018-05-17T07:28:59.760Z,1284.00
2018-05-17T07:29:59.747Z,1292.00
2018-05-17T07:30:59.721Z,1368.00
2018-05-17T07:31:59.704Z,1412.00
2018-05-17T07:32:59.687Z,1460.00
2018-05-17T07:33:59.672Z,1512.00
2018-05-17T07:34:59.650Z,1476.00
2018-05-17T07:35:59.634Z,1668.00
2018-05-17T07:36:59.618Z,1736.00
2018-05-17T07:37:59.594Z,1412.00
2018-05-17T07:38:59.577Z,1920.00
2018-05-17T07:39:59.561Z,2036.00
2018-05-17T07:40:59.545Z,2152.00
2018-05-17T07:41:59.527Z,2232.00
2018-05-17T07:42:59.513Z,1496.00
2018-05-17T07:43:59.489Z,2300.00
2018-05-17T07:44:59.469Z,2248.00
2018-05-17T07:45:59.461Z,1420.00
2018-05-17T07:46:59.437Z,1072.00
2018-05-17T07:47:59.420Z,1084.00
2018-05-17T07:48:59.411Z,1288.00
2018-05-17T07:49:59.383Z,968.00
2018-05-17T07:50:59.359Z,972.00
2018-05-17T07:51:59.342Z,956.00
2018-05-17T07:52:59.326Z,952.00
2018-05-17T07:53:59.307Z,940.00
2018-05-17T07:54:59.288Z,904.00
2018-05-17T07:55:59.286Z,852.00
2018-05-17T07:56:59.256Z,832.00
2018-05-17T07:57:59.239Z,820.00
2018-05-17T07:58:59.220Z,816.00
2018-05-17T07:59:59.210Z,856.00
2018-05-17T08:00:59.181Z,992.00
2018-05-17T08:01:59.172Z,964.00
2018-05-17T08:02:59.150Z,2116.00
2018-05-17T08:03:59.127Z,1992.00
2018-05-17T08:04:59.113Z,2556.00
2018-05-17T08:05:59.094Z,2652.00
2018-05-17T08:06:59.073Z,2760.00
2018-05-17T08:07:59.057Z,1268.00
2018-05-17T08:08:59.038Z,1124.00
2018-05-17T08:09:59.025Z,1576.00
2018-05-17T08:10:59.014Z,2944.00
2018-05-17T08:11:59.003Z,2448.00
2018-05-17T08:12:58.969Z,2740.00
2018-05-17T08:13:58.951Z,1116.00
2018-05-17T08:14:58.935Z,1160.00
2018-05-17T08:15:58.921Z,1124.00
2018-05-17T08:16:58.898Z,1052.00
2018-05-17T08:17:58.905Z,992.00
2018-05-17T08:18:58.863Z,984.00
2018-05-17T08:19:58.845Z,1048.00
2018-05-17T08:20:58.833Z,1132.00
2018-05-17T08:21:58.809Z,1200.00
2018-05-17T08:22:58.792Z,1116.00
2018-05-17T08:23:58.780Z,1004.00
2018-05-17T08:24:58.762Z,984.00
2018-05-17T08:25:58.749Z,1036.00
2018-05-17T08:26:58.722Z,1052.00
2018-05-17T08:27:58.706Z,992.00
2018-05-17T08:28:58.768Z,956.00
2018-05-17T08:29:58.671Z,924.00
2018-05-17T08:30:58.651Z,876.00
2018-05-17T08:31:58.636Z,808.00
2018-05-17T08:32:58.618Z,712.00
2018-05-17T08:33:58.605Z,1020.00
2018-05-17T08:34:58.588Z,1288.00
2018-05-17T08:35:58.567Z,2416.00
2018-05-17T08:36:58.546Z,2668.00
2018-05-17T08:37:58.529Z,2584.00
2018-05-17T08:38:58.524Z,1044.00
2018-05-17T08:39:58.494Z,1140.00
2018-05-17T08:40:58.485Z,1256.00
2018-05-17T08:41:58.460Z,1428.00
2018-05-17T08:42:58.443Z,920.00
2018-05-17T08:43:58.422Z,1508.00
2018-05-17T08:44:58.410Z,832.00
2018-05-17T08:45:58.384Z,716.00
2018-05-17T08:46:58.369Z,2680.00
2018-05-17T08:47:58.348Z,2588.00
2018-05-17T08:48:58.336Z,2580.00
2018-05-17T08:49:58.314Z,2540.00
2018-05-17T08:50:58.304Z,2548.00
2018-05-17T08:51:58.281Z,2540.00
2018-05-17T08:52:58.265Z,2540.00
2018-05-17T08:53:58.244Z,2544.00
2018-05-17T08:54:58.230Z,2536.00
2018-05-17T08:55:58.274Z,2528.00
2018-05-17T08:56:58.197Z,2540.00
2018-05-17T08:57:58.176Z,2508.00
2018-05-17T08:58:58.158Z,2544.00
2018-05-17T08:59:58.143Z,2572.00
2018-05-17T09:00:58.124Z,2560.00
2018-05-17T09:01:58.107Z,2568.00
2018-05-17T09:02:58.088Z,2588.00
2018-05-17T09:03:58.076Z,2600.00
2018-05-17T09:04:58.061Z,2628.00
2018-05-17T09:05:58.049Z,2660.00
2018-05-17T09:06:58.019Z,2768.00
2018-05-17T09:07:58.023Z,2832.00
2018-05-17T09:08:58.014Z,2960.00
2018-05-17T09:09:57.970Z,3080.00
2018-05-17T09:10:57.948Z,3188.00
2018-05-17T09:11:57.931Z,1732.00
2018-05-17T09:12:57.915Z,2944.00
2018-05-17T09:13:57.900Z,1392.00
2018-05-17T09:14:57.880Z,1516.00
2018-05-17T09:15:57.869Z,1312.00
2018-05-17T09:16:57.844Z,1108.00
2018-05-17T09:17:57.825Z,1072.00
2018-05-17T09:18:57.814Z,2068.00
2018-05-17T09:19:57.799Z,2532.00
2018-05-17T09:20:57.775Z,2584.00
2018-05-17T09:21:57.764Z,3164.00
2018-05-17T09:22:57.741Z,3140.00
2018-05-17T09:23:57.725Z,1532.00
2018-05-17T09:24:57.706Z,1032.00
2018-05-17T09:25:57.686Z,1080.00
2018-05-17T09:26:57.675Z,1200.00
2018-05-17T09:27:57.654Z,1876.00
2018-05-17T09:28:57.640Z,2860.00
2018-05-17T09:29:57.619Z,1628.00
2018-05-17T09:30:57.604Z,2456.00
2018-05-17T09:31:57.583Z,2812.00
2018-05-17T09:32:57.569Z,2808.00
2018-05-17T09:33:57.552Z,2660.00
2018-05-17T09:34:57.537Z,1384.00
2018-05-17T09:35:57.520Z,2704.00
2018-05-17T09:36:57.509Z,2672.00
2018-05-17T09:37:57.483Z,2656.00
2018-05-17T09:38:57.466Z,2688.00
2018-05-17T09:39:57.451Z,2780.00
2018-05-17T09:40:57.438Z,2848.00
2018-05-17T09:41:57.430Z,1796.00
2018-05-17T09:42:57.396Z,2312.00
2018-05-17T09:43:57.382Z,2692.00
2018-05-17T09:44:57.363Z,2744.00
2018-05-17T09:45:57.347Z,2724.00
2018-05-17T09:46:57.331Z,2048.00
2018-05-17T09:47:57.325Z,2664.00
2018-05-17T09:48:57.299Z,2596.00
2018-05-17T09:49:57.281Z,2596.00
2018-05-17T09:50:57.265Z,2560.00
2018-05-17T09:51:57.245Z,2556.00
2018-05-17T09:52:57.235Z,2564.00
2018-05-17T09:53:57.210Z,2560.00
2018-05-17T09:54:57.271Z,2556.00
2018-05-17T09:55:57.177Z,2552.00
2018-05-17T09:56:57.161Z,2576.00
2018-05-17T09:57:57.146Z,2576.00
2018-05-17T09:58:57.129Z,2572.00
2018-05-17T09:59:57.110Z,2556.00
2018-05-17T10:00:57.095Z,2524.00
2018-05-17T10:01:57.081Z,2588.00
2018-05-17T10:02:57.069Z,2532.00
2018-05-17T10:03:57.042Z,2592.00
2018-05-17T10:04:57.027Z,2652.00
2018-05-17T10:05:57.008Z,2644.00
2018-05-17T10:06:56.989Z,2656.00
2018-05-17T10:07:56.975Z,1160.00
2018-05-17T10:08:57.030Z,2400.00
2018-05-17T10:09:56.941Z,2104.00
2018-05-17T10:10:56.922Z,1152.00
2018-05-17T10:11:56.906Z,2832.00
2018-05-17T10:12:56.898Z,964.00
2018-05-17T10:13:56.882Z,1636.00
2018-05-17T10:14:56.863Z,2692.00
2018-05-17T10:15:56.840Z,2640.00
2018-05-17T10:16:56.834Z,2596.00
2018-05-17T10:17:56.810Z,2592.00
2018-05-17T10:18:56.793Z,2600.00
2018-05-17T10:19:56.776Z,2572.00
2018-05-17T10:20:56.759Z,2572.00
2018-05-17T10:21:56.749Z,2628.00
2018-05-17T10:22:56.731Z,2592.00
2018-05-17T10:23:56.713Z,2596.00
2018-05-17T10:24:56.696Z,2576.00
2018-05-17T10:25:56.678Z,2560.00
2018-05-17T10:26:56.659Z,2544.00
2018-05-17T10:27:56.649Z,2512.00
2018-05-17T10:28:56.639Z,2592.00
2018-05-17T10:29:56.609Z,1676.00
2018-05-17T10:30:56.590Z,2600.00
2018-05-17T10:31:56.576Z,2528.00
2018-05-17T10:32:56.561Z,2544.00
2018-05-17T10:33:56.545Z,2548.00
2018-05-17T10:34:56.529Z,2528.00
2018-05-17T10:35:56.509Z,2548.00
2018-05-17T10:36:56.497Z,2548.00
2018-05-17T10:37:56.480Z,2532.00
2018-05-17T10:38:56.464Z,2556.00
2018-05-17T10:39:56.443Z,2580.00
2018-05-17T10:40:56.433Z,2528.00
2018-05-17T10:41:56.413Z,2604.00
2018-05-17T10:42:56.406Z,2652.00
2018-05-17T10:43:56.379Z,2668.00
2018-05-17T10:44:56.380Z,2600.00
2018-05-17T10:45:56.348Z,2796.00
2018-05-17T10:46:56.335Z,2816.00
2018-05-17T10:47:56.315Z,2672.00
2018-05-17T10:48:56.347Z,2804.00
2018-05-17T10:49:56.285Z,2548.00
2018-05-17T10:50:56.271Z,2036.00
2018-05-17T10:51:56.253Z,1580.00
2018-05-17T10:52:56.242Z,1776.00
2018-05-17T10:53:56.218Z,2608.00
2018-05-17T10:54:56.199Z,2604.00
2018-05-17T10:55:56.189Z,2576.00
2018-05-17T10:56:56.190Z,2556.00
2018-05-17T10:57:56.161Z,2572.00
2018-05-17T10:58:56.148Z,2520.00
2018-05-17T10:59:56.134Z,2588.00
2018-05-17T11:00:56.109Z,2576.00
2018-05-17T11:01:56.088Z,2572.00
2018-05-17T11:02:56.072Z,2572.00
2018-05-17T11:03:56.061Z,2576.00
2018-05-17T11:04:56.050Z,2604.00
2018-05-17T11:05:56.031Z,2588.00
2018-05-17T11:06:56.011Z,2600.00
2018-05-17T11:08:55.975Z,2612.00
2018-05-17T11:09:55.962Z,2600.00
2018-05-17T11:10:55.949Z,2604.00
2018-05-17T11:11:55.925Z,2600.00
2018-05-17T11:12:55.911Z,2608.00
2018-05-17T11:13:55.892Z,2588.00
2018-05-17T11:14:55.875Z,2644.00
2018-05-17T11:15:55.870Z,2612.00
2018-05-17T11:16:55.849Z,2652.00
2018-05-17T11:17:55.830Z,2648.00
2018-05-17T11:18:55.812Z,2632.00
2018-05-17T11:19:55.799Z,2636.00
2018-05-17T11:20:55.783Z,2632.00
2018-05-17T11:21:55.765Z,2644.00
2018-05-17T11:22:55.757Z,2672.00
2018-05-17T11:23:55.736Z,2676.00
2018-05-17T11:24:55.722Z,2664.00
2018-05-17T11:25:55.788Z,2660.00
2018-05-17T11:26:55.693Z,2672.00
2018-05-17T11:27:55.673Z,2684.00
2018-05-17T11:28:55.655Z,2660.00
2018-05-17T11:29:55.639Z,2668.00
2018-05-17T11:30:55.636Z,2640.00
2018-05-17T11:31:55.608Z,2680.00
2018-05-17T11:32:55.597Z,2672.00
2018-05-17T11:33:55.577Z,2700.00
2018-05-17T11:34:55.562Z,2692.00
2018-05-17T11:35:55.553Z,2672.00
2018-05-17T11:36:55.527Z,2684.00
2018-05-17T11:37:55.511Z,2684.00
2018-05-17T11:38:55.497Z,2688.00
2018-05-17T11:39:55.490Z,2660.00
2018-05-17T11:40:55.466Z,2704.00
2018-05-17T11:41:55.449Z,2680.00
2018-05-17T11:42:55.435Z,2696.00
2018-05-17T11:43:55.425Z,2716.00
2018-05-17T11:44:55.409Z,2708.00
2018-05-17T11:45:55.399Z,2732.00
2018-05-17T11:46:55.380Z,2740.00
2018-05-17T11:47:55.353Z,2736.00
2018-05-17T11:48:55.344Z,2756.00
2018-05-17T11:49:55.320Z,2744.00
2018-05-17T11:50:55.315Z,2756.00
2018-05-17T11:51:55.296Z,2760.00
2018-05-17T11:52:55.277Z,2748.00
2018-05-17T11:53:55.258Z,2780.00
2018-05-17T11:54:55.245Z,2772.00
2018-05-17T11:55:55.230Z,2768.00
2018-05-17T11:56:55.216Z,2768.00
2018-05-17T11:57:55.199Z,2764.00
2018-05-17T11:58:55.201Z,2744.00
2018-05-17T11:59:55.167Z,2732.00
2018-05-17T12:00:55.161Z,2752.00
2018-05-17T12:01:55.133Z,2764.00
2018-05-17T12:02:55.137Z,2764.00
2018-05-17T12:03:55.105Z,2796.00
2018-05-17T12:04:55.089Z,2788.00
2018-05-17T12:05:55.075Z,2772.00
2018-05-17T12:06:55.068Z,2756.00
2018-05-17T12:07:55.040Z,2772.00
2018-05-17T12:08:55.038Z,2784.00
2018-05-17T12:09:55.008Z,2792.00
2018-05-17T12:10:54.998Z,2780.00
2018-05-17T12:11:54.977Z,2800.00
2018-05-17T12:12:54.969Z,2792.00
2018-05-17T12:13:54.948Z,2796.00
2018-05-17T12:14:54.932Z,2776.00
2018-05-17T12:15:54.917Z,2756.00
2018-05-17T12:16:54.901Z,2764.00
2018-05-17T12:17:54.884Z,2768.00
2018-05-17T12:18:54.869Z,2788.00
2018-05-17T12:19:54.864Z,2764.00
2018-05-17T12:20:54.836Z,2796.00
2018-05-17T12:21:54.821Z,2776.00
2018-05-17T12:22:54.810Z,2776.00
2018-05-17T12:23:54.792Z,2792.00
2018-05-17T12:24:54.775Z,2772.00
2018-05-17T12:25:54.768Z,2800.00
2018-05-17T12:26:54.749Z,2768.00
2018-05-17T12:27:54.730Z,2760.00
2018-05-17T12:28:54.720Z,2824.00
2018-05-17T12:29:54.702Z,2804.00
2018-05-17T12:30:54.679Z,2784.00
2018-05-17T12:31:54.798Z,2804.00
2018-05-17T12:32:54.650Z,2768.00
2018-05-17T12:33:54.638Z,2776.00
2018-05-17T12:34:54.625Z,2776.00
2018-05-17T12:35:54.612Z,2752.00
2018-05-17T12:36:54.595Z,2708.00
2018-05-17T12:37:54.568Z,2724.00